Calpella, California
Current Conditions -  °F | °C
As of 5:16 AM on Saturday 22 Nov 2014 (Local Time) from KUKI Reporting Station
Light Rain Light Rain  
Wind Chill: 56°   Ceiling: 2500
Heat Index: 56°   Visibility: 4mi
Dew Point: 54°   Wind: 6mph
Humidity: 93%   Direction: 140°SE
Pressure: 29.97"   Gusts: NA
Location:  39.23°N, 123.21°W
Report Text: KUKI 221316Z AUTO 14005KT 4SM -RA BR FEW004 BKN025 OVC032 13/12 A2997 RMK AO2 P0005 T01330122
Loading
Personal Weather Stations






























Interactive Weather Map New forecast layout! Learn more

10-Day Weather Forecast

Advertisements
Track Severe Weather on mobile